MiSS Mallory — WDB5044 — position and weather

sailwx.info

Track history (hours):
 
Tides and Currents Weather Stations Pressure Air Temp Water Temp Dewpoint Dewpoint Depression Visibility Wind Speed Wind Dir Waves Ship Positions

MiSS Mallory

Owner: POTOMAC RIVERBOAT COMPANY, ALEXANDRIA, VA. More information available from US FCC via Universal Licensing System and Coast Guard Vessel Documentation Center.

Last reported at 2018-May-24 18:23 UTC. Time now 2018-Aug-15 02:58 UTC.
Position N 38°48' W 077°02'.
Warning: this ship's position is months out of date.

Length 22 m; draft 2 m.

Type: Passenger vessel. MMSI: 366905270.

Date/timePositionNaut miles runAvg speedWind from/ knotsBaromVisibWave heightAir tempDewpointWater temp
2018-May-24 18:23N 38°48' W 077°02'1 1.7
2018-May-24 17:58N 38°48' W 077°02'0 0.0
2018-May-24 00:25N 38°48' W 077°02'1 3.0
2018-May-23 23:58N 38°49' W 077°02'4 7.3
2018-May-23 23:29N 38°52' W 077°00'0 0.0
2018-May-23 22:59N 38°52' W 077°00'4 7.2
2018-May-23 22:29N 38°49' W 077°02'0 0.7
2018-May-23 21:57N 38°49' W 077°02'3 6.6
2018-May-23 21:29N 38°52' W 077°00'0 0.2
2018-May-23 20:55N 38°52' W 077°00'0 0.0
2018-May-23 20:28N 38°52' W 077°00'0 0.0
2018-May-23 19:59N 38°52' W 077°00'2 3.2
2018-May-23 19:28N 38°51' W 077°01'3 4.8
2018-May-23 18:55N 38°48' W 077°02'0 0.1
2018-May-23 18:19N 38°48' W 077°02'0 0.0
2018-May-23 17:49N 38°48' W 077°02'2 0.1
2018-May-23 01:23N 38°47' W 077°02'2 3.8
2018-May-23 00:57N 38°48' W 077°02'2 4.7
2018-May-23 00:29N 38°50' W 077°02'2 4.3
2018-May-23 00:00N 38°52' W 077°01'2 3.6
2018-May-22 23:30N 38°51' W 077°01'2 4.9
2018-May-22 23:00N 38°48' W 077°02'0 0.0
2018-May-22 22:29N 38°48' W 077°02'0 0.0
2018-May-22 21:20N 38°48' W 077°02'0 0.0
2018-May-22 20:59N 38°48' W 077°02'0 0.0
2018-May-22 20:28N 38°48' W 077°02'0 0.0
2018-May-22 19:59N 38°48' W 077°02'0 0.1
2018-May-22 19:26N 38°48' W 077°02'0 0.0
2018-May-22 15:27N 38°48' W 077°02'0 0.1
2018-May-22 14:01N 38°48' W 077°02'0 0.3
2018-May-22 13:44N 38°48' W 077°02'1 2.4
2018-May-22 13:31N 38°48' W 077°02'  
2018-May-20 04:43N 38°47' W 077°02'2 6.5
2018-May-20 04:27N 38°48' W 077°02'4 8.1
2018-May-20 04:00N 38°52' W 077°01'1 1.0
2018-May-20 03:27N 38°52' W 077°00'0 0.0
2018-May-20 02:56N 38°52' W 077°00'0 0.0
2018-May-20 02:26N 38°52' W 077°00'0 0.0
2018-May-20 01:59N 38°52' W 077°00'0 0.0
2018-May-20 01:29N 38°52' W 077°00'0 0.0
2018-May-20 01:00N 38°52' W 077°00'0 0.0
2018-May-20 00:30N 38°52' W 077°00'0 0.0
2018-May-20 00:00N 38°52' W 077°00'2 3.8
2018-May-19 23:29N 38°50' W 077°01'2 1.1
2018-May-19 21:20N 38°48' W 077°02'2 0.1
2018-May-19 02:36N 38°47' W 077°01'1 3.7
2018-May-19 02:24N 38°47' W 077°02'2 4.1
2018-May-19 02:00N 38°48' W 077°02'1 1.6
2018-May-19 01:28N 38°49' W 077°02'3 6.4
2018-May-19 01:00N 38°52' W 077°02'2 3.2
2018-May-19 00:24N 38°54' W 077°03'2 4.4
2018-May-18 23:59N 38°52' W 077°02'3 6.2
2018-May-18 23:31N 38°49' W 077°02'1 1.7
2018-May-18 22:56N 38°48' W 077°02'0 0.0
2018-May-18 22:28N 38°48' W 077°02'0 0.0
2018-May-18 21:57N 38°48' W 077°02'0 0.1
2018-May-18 21:16N 38°48' W 077°02'0 0.2
2018-May-18 20:56N 38°48' W 077°02'0 0.0
2018-May-18 20:30N 38°48' W 077°02'0 0.1
2018-May-18 19:59N 38°48' W 077°02'1 3.0
2018-May-18 19:30N 38°50' W 077°02'4 5.9
2018-May-18 18:53N 38°53' W 077°03'2 5.0
2018-May-18 18:29N 38°52' W 077°02'1 2.2
2018-May-18 17:59N 38°52' W 077°00'3 5.7
2018-May-18 17:28N 38°49' W 077°02'1 2.3
2018-May-18 16:58N 38°48' W 077°02'0 0.0
2018-May-18 16:29N 38°48' W 077°02'0 0.0
2018-May-18 16:00N 38°48' W 077°02'0 0.1
2018-May-18 15:29N 38°48' W 077°02'0 0.0
2018-May-18 14:59N 38°48' W 077°02'0 0.0
2018-May-18 03:03N 38°49' W 077°02'113.0
2018-May-18 02:59N 38°49' W 077°02'5 9.8
2018-May-18 02:30N 38°54' W 077°04'2 4.4
2018-May-18 02:01N 38°52' W 077°02'4 6.4
2018-May-18 01:24N 38°48' W 077°02'3 6.7
2018-May-18 01:00N 38°51' W 077°01'0 0.4
2018-May-17 23:57N 38°51' W 077°01'3 6.8
2018-May-17 23:30N 38°48' W 077°02'2 3.6
2018-May-17 22:59N 38°50' W 077°02'4 7.1
2018-May-17 22:22N 38°54' W 077°04'2 4.4
2018-May-17 21:57N 38°53' W 077°02'4 8.5
2018-May-17 21:28N 38°48' W 077°02'1 3.1
2018-May-17 21:00N 38°50' W 077°02'5 7.9
2018-May-17 20:25N 38°54' W 077°04'2 3.8
2018-May-17 20:01N 38°53' W 077°03'4 8.8
2018-May-17 19:30N 38°48' W 077°02'1 1.9
2018-May-17 19:00N 38°49' W 077°02'4 4.4
2018-May-17 18:04N 38°53' W 077°03'1 9.5
2018-May-17 17:56N 38°52' W 077°02'4 9.3
2018-May-17 17:30N 38°48' W 077°02'1 2.1
2018-May-17 17:00N 38°49' W 077°02'4 4.8
2018-May-17 16:09N 38°53' W 077°03'2 9.2
2018-May-17 15:59N 38°52' W 077°02'4 7.5
2018-May-17 15:29N 38°48' W 077°02'0 0.0
2018-May-17 14:57N 38°48' W 077°02'0 0.0
2018-May-17 14:28N 38°48' W 077°02'2 3.1
2018-May-17 13:56N 38°47' W 077°01'0 0.0
2018-May-16 22:31N 38°47' W 077°01'0 0.0
2018-May-16 22:26N 38°47' W 077°01'2 3.9
2018-May-16 22:00N 38°48' W 077°02'0 0.1
2018-May-16 21:29N 38°48' W 077°02'2 3.0
2018-May-16 20:58N 38°47' W 077°01'4 7.9
2018-May-16 20:29N 38°44' W 077°02'3 3.3
2018-May-16 19:40N 38°42' W 077°05'2 9.9
2018-May-16 19:29N 38°42' W 077°03'2 2.3
2018-May-16 18:42N 38°42' W 077°05'2 6.7
2018-May-16 18:26N 38°42' W 077°03'2 0.7
2018-May-16 15:53N 38°42' W 077°05'410.8
2018-May-16 15:30N 38°45' W 077°02'2 3.4
2018-May-16 14:59N 38°47' W 077°01'2 3.0
2018-May-16 14:27N 38°48' W 077°02'0 0.0
2018-May-16 13:58N 38°48' W 077°02'0 0.0
2018-May-16 13:27N 38°48' W 077°02'1 1.3
2018-May-16 13:00N 38°48' W 077°02'1 0.1
2018-May-16 04:04N 38°47' W 077°01'0 0.1
2018-May-16 04:00N 38°47' W 077°01'0 0.5
2018-May-16 03:29N 38°47' W 077°01'2 3.5
2018-May-16 03:00N 38°49' W 077°02'4 6.7
2018-May-16 02:26N 38°52' W 077°00'0 0.0
2018-May-16 01:57N 38°52' W 077°00'0 0.0
2018-May-16 01:30N 38°52' W 077°00'0 0.0
2018-May-16 00:57N 38°52' W 077°00'0 0.0
2018-May-16 00:27N 38°52' W 077°00'0 0.0
2018-May-15 23:58N 38°52' W 077°00'0 0.0
2018-May-15 23:28N 38°52' W 077°00'0 0.0
2018-May-15 22:57N 38°52' W 077°00'0 0.0
2018-May-15 22:30N 38°52' W 077°00'4 7.9
2018-May-15 22:00N 38°49' W 077°02'0 0.7
2018-May-15 21:29N 38°48' W 077°02'0 0.0
2018-May-15 20:49N 38°48' W 077°02'0 0.0
2018-May-15 20:28N 38°48' W 077°02'0 0.0
2018-May-15 19:58N 38°48' W 077°02'0 0.0
2018-May-15 19:27N 38°48' W 077°02'0 0.0
2018-May-15 18:57N 38°48' W 077°02'0 0.0
2018-May-15 18:26N 38°48' W 077°02'0 0.0
2018-May-15 17:57N 38°48' W 077°02'0 0.0
2018-May-15 17:30N 38°48' W 077°02'0 0.0
2018-May-15 17:00N 38°48' W 077°02'0 0.0
2018-May-15 16:28N 38°48' W 077°02'2 3.9
2018-May-15 16:00N 38°47' W 077°02'1 0.0
2018-May-14 20:54N 38°47' W 077°01'0 1.0
2018-May-14 20:30N 38°47' W 077°02'  
Track history (hours):
 
Tides and Currents Weather Stations Pressure Air Temp Water Temp Dewpoint Dewpoint Depression Visibility Wind Speed Wind Dir Waves Ship Positions

MiSS Mallory

Owner: POTOMAC RIVERBOAT COMPANY, ALEXANDRIA, VA. More information available from US FCC via Universal Licensing System and Coast Guard Vessel Documentation Center.

Last reported at 2018-May-24 18:23 UTC. Time now 2018-Aug-15 02:58 UTC.
Position N 38°48' W 077°02'.
Warning: this ship's position is months out of date.

Length 22 m; draft 2 m.

Type: Passenger vessel. MMSI: 366905270.

Date/timePositionNaut miles runAvg speedWind from/ knotsBaromVisibWave heightAir tempDewpointWater temp
2018-May-24 18:23N 38°48' W 077°02'1 1.7
2018-May-24 17:58N 38°48' W 077°02'0 0.0
2018-May-24 00:25N 38°48' W 077°02'1 3.0
2018-May-23 23:58N 38°49' W 077°02'4 7.3
2018-May-23 23:29N 38°52' W 077°00'0 0.0
2018-May-23 22:59N 38°52' W 077°00'4 7.2
2018-May-23 22:29N 38°49' W 077°02'0 0.7
2018-May-23 21:57N 38°49' W 077°02'3 6.6
2018-May-23 21:29N 38°52' W 077°00'0 0.2
2018-May-23 20:55N 38°52' W 077°00'0 0.0
2018-May-23 20:28N 38°52' W 077°00'0 0.0
2018-May-23 19:59N 38°52' W 077°00'2 3.2
2018-May-23 19:28N 38°51' W 077°01'3 4.8
2018-May-23 18:55N 38°48' W 077°02'0 0.1
2018-May-23 18:19N 38°48' W 077°02'0 0.0
2018-May-23 17:49N 38°48' W 077°02'2 0.1
2018-May-23 01:23N 38°47' W 077°02'2 3.8
2018-May-23 00:57N 38°48' W 077°02'2 4.7
2018-May-23 00:29N 38°50' W 077°02'2 4.3
2018-May-23 00:00N 38°52' W 077°01'2 3.6
2018-May-22 23:30N 38°51' W 077°01'2 4.9
2018-May-22 23:00N 38°48' W 077°02'0 0.0
2018-May-22 22:29N 38°48' W 077°02'0 0.0
2018-May-22 21:20N 38°48' W 077°02'0 0.0
2018-May-22 20:59N 38°48' W 077°02'0 0.0
2018-May-22 20:28N 38°48' W 077°02'0 0.0
2018-May-22 19:59N 38°48' W 077°02'0 0.1
2018-May-22 19:26N 38°48' W 077°02'0 0.0
2018-May-22 15:27N 38°48' W 077°02'0 0.1
2018-May-22 14:01N 38°48' W 077°02'0 0.3
2018-May-22 13:44N 38°48' W 077°02'1 2.4
2018-May-22 13:31N 38°48' W 077°02'  
2018-May-20 04:43N 38°47' W 077°02'2 6.5
2018-May-20 04:27N 38°48' W 077°02'4 8.1
2018-May-20 04:00N 38°52' W 077°01'1 1.0
2018-May-20 03:27N 38°52' W 077°00'0 0.0
2018-May-20 02:56N 38°52' W 077°00'0 0.0
2018-May-20 02:26N 38°52' W 077°00'0 0.0
2018-May-20 01:59N 38°52' W 077°00'0 0.0
2018-May-20 01:29N 38°52' W 077°00'0 0.0
2018-May-20 01:00N 38°52' W 077°00'0 0.0
2018-May-20 00:30N 38°52' W 077°00'0 0.0
2018-May-20 00:00N 38°52' W 077°00'2 3.8
2018-May-19 23:29N 38°50' W 077°01'2 1.1
2018-May-19 21:20N 38°48' W 077°02'2 0.1
2018-May-19 02:36N 38°47' W 077°01'1 3.7
2018-May-19 02:24N 38°47' W 077°02'2 4.1
2018-May-19 02:00N 38°48' W 077°02'1 1.6
2018-May-19 01:28N 38°49' W 077°02'3 6.4
2018-May-19 01:00N 38°52' W 077°02'2 3.2
2018-May-19 00:24N 38°54' W 077°03'2 4.4
2018-May-18 23:59N 38°52' W 077°02'3 6.2
2018-May-18 23:31N 38°49' W 077°02'1 1.7
2018-May-18 22:56N 38°48' W 077°02'0 0.0
2018-May-18 22:28N 38°48' W 077°02'0 0.0
2018-May-18 21:57N 38°48' W 077°02'0 0.1
2018-May-18 21:16N 38°48' W 077°02'0 0.2
2018-May-18 20:56N 38°48' W 077°02'0 0.0
2018-May-18 20:30N 38°48' W 077°02'0 0.1
2018-May-18 19:59N 38°48' W 077°02'1 3.0
2018-May-18 19:30N 38°50' W 077°02'4 5.9
2018-May-18 18:53N 38°53' W 077°03'2 5.0
2018-May-18 18:29N 38°52' W 077°02'1 2.2
2018-May-18 17:59N 38°52' W 077°00'3 5.7
2018-May-18 17:28N 38°49' W 077°02'1 2.3
2018-May-18 16:58N 38°48' W 077°02'0 0.0
2018-May-18 16:29N 38°48' W 077°02'0 0.0
2018-May-18 16:00N 38°48' W 077°02'0 0.1
2018-May-18 15:29N 38°48' W 077°02'0 0.0
2018-May-18 14:59N 38°48' W 077°02'0 0.0
2018-May-18 03:03N 38°49' W 077°02'113.0
2018-May-18 02:59N 38°49' W 077°02'5 9.8
2018-May-18 02:30N 38°54' W 077°04'2 4.4
2018-May-18 02:01N 38°52' W 077°02'4 6.4
2018-May-18 01:24N 38°48' W 077°02'3 6.7
2018-May-18 01:00N 38°51' W 077°01'0 0.4
2018-May-17 23:57N 38°51' W 077°01'3 6.8
2018-May-17 23:30N 38°48' W 077°02'2 3.6
2018-May-17 22:59N 38°50' W 077°02'4 7.1
2018-May-17 22:22N 38°54' W 077°04'2 4.4
2018-May-17 21:57N 38°53' W 077°02'4 8.5
2018-May-17 21:28N 38°48' W 077°02'1 3.1
2018-May-17 21:00N 38°50' W 077°02'5 7.9
2018-May-17 20:25N 38°54' W 077°04'2 3.8
2018-May-17 20:01N 38°53' W 077°03'4 8.8
2018-May-17 19:30N 38°48' W 077°02'1 1.9
2018-May-17 19:00N 38°49' W 077°02'4 4.4
2018-May-17 18:04N 38°53' W 077°03'1 9.5
2018-May-17 17:56N 38°52' W 077°02'4 9.3
2018-May-17 17:30N 38°48' W 077°02'1 2.1
2018-May-17 17:00N 38°49' W 077°02'4 4.8
2018-May-17 16:09N 38°53' W 077°03'2 9.2
2018-May-17 15:59N 38°52' W 077°02'4 7.5
2018-May-17 15:29N 38°48' W 077°02'0 0.0
2018-May-17 14:57N 38°48' W 077°02'0 0.0
2018-May-17 14:28N 38°48' W 077°02'2 3.1
2018-May-17 13:56N 38°47' W 077°01'0 0.0
2018-May-16 22:31N 38°47' W 077°01'0 0.0
2018-May-16 22:26N 38°47' W 077°01'2 3.9
2018-May-16 22:00N 38°48' W 077°02'0 0.1
2018-May-16 21:29N 38°48' W 077°02'2 3.0
2018-May-16 20:58N 38°47' W 077°01'4 7.9
2018-May-16 20:29N 38°44' W 077°02'3 3.3
2018-May-16 19:40N 38°42' W 077°05'2 9.9
2018-May-16 19:29N 38°42' W 077°03'2 2.3
2018-May-16 18:42N 38°42' W 077°05'2 6.7
2018-May-16 18:26N 38°42' W 077°03'2 0.7
2018-May-16 15:53N 38°42' W 077°05'410.8
2018-May-16 15:30N 38°45' W 077°02'2 3.4
2018-May-16 14:59N 38°47' W 077°01'2 3.0
2018-May-16 14:27N 38°48' W 077°02'0 0.0
2018-May-16 13:58N 38°48' W 077°02'0 0.0
2018-May-16 13:27N 38°48' W 077°02'1 1.3
2018-May-16 13:00N 38°48' W 077°02'1 0.1
2018-May-16 04:04N 38°47' W 077°01'0 0.1
2018-May-16 04:00N 38°47' W 077°01'0 0.5
2018-May-16 03:29N 38°47' W 077°01'2 3.5
2018-May-16 03:00N 38°49' W 077°02'4 6.7
2018-May-16 02:26N 38°52' W 077°00'0 0.0
2018-May-16 01:57N 38°52' W 077°00'0 0.0
2018-May-16 01:30N 38°52' W 077°00'0 0.0
2018-May-16 00:57N 38°52' W 077°00'0 0.0
2018-May-16 00:27N 38°52' W 077°00'0 0.0
2018-May-15 23:58N 38°52' W 077°00'0 0.0
2018-May-15 23:28N 38°52' W 077°00'0 0.0
2018-May-15 22:57N 38°52' W 077°00'0 0.0
2018-May-15 22:30N 38°52' W 077°00'4 7.9
2018-May-15 22:00N 38°49' W 077°02'0 0.7
2018-May-15 21:29N 38°48' W 077°02'0 0.0
2018-May-15 20:49N 38°48' W 077°02'0 0.0
2018-May-15 20:28N 38°48' W 077°02'0 0.0
2018-May-15 19:58N 38°48' W 077°02'0 0.0
2018-May-15 19:27N 38°48' W 077°02'0 0.0
2018-May-15 18:57N 38°48' W 077°02'0 0.0
2018-May-15 18:26N 38°48' W 077°02'0 0.0
2018-May-15 17:57N 38°48' W 077°02'0 0.0
2018-May-15 17:30N 38°48' W 077°02'0 0.0
2018-May-15 17:00N 38°48' W 077°02'0 0.0
2018-May-15 16:28N 38°48' W 077°02'2 3.9
2018-May-15 16:00N 38°47' W 077°02'1 0.0
2018-May-14 20:54N 38°47' W 077°01'0 1.0
2018-May-14 20:30N 38°47' W 077°02'  

Dump ship's entire track history